sensor_id;sensor_type;location;lat;lon;timestamp;temperature;humidity
6740;DHT22;3407;49.882;10.920;2024-02-26T00:01:51;1.40;1.00
6740;DHT22;3407;49.882;10.920;2024-02-26T00:06:47;1.30;99.90
6740;DHT22;3407;49.882;10.920;2024-02-26T00:11:45;1.20;99.90
6740;DHT22;3407;49.882;10.920;2024-02-26T00:16:41;1.10;99.90
6740;DHT22;3407;49.882;10.920;2024-02-26T00:21:40;1.00;99.90
6740;DHT22;3407;49.882;10.920;2024-02-26T00:26:37;1.00;99.90
6740;DHT22;3407;49.882;10.920;2024-02-26T00:31:33;1.20;1.00
6740;DHT22;3407;49.882;10.920;2024-02-26T00:36:28;1.00;99.90
6740;DHT22;3407;49.882;10.920;2024-02-26T00:41:24;1.00;99.90
6740;DHT22;3407;49.882;10.920;2024-02-26T00:46:19;0.90;99.90
6740;DHT22;3407;49.882;10.920;2024-02-26T00:51:14;0.80;1.00
6740;DHT22;3407;49.882;10.920;2024-02-26T00:56:10;0.90;1.00
6740;DHT22;3407;49.882;10.920;2024-02-26T01:01:06;0.80;99.90
6740;DHT22;3407;49.882;10.920;2024-02-26T01:06:01;0.70;99.90
6740;DHT22;3407;49.882;10.920;2024-02-26T01:10:57;0.80;1.00
6740;DHT22;3407;49.882;10.920;2024-02-26T01:15:53;0.90;1.00
6740;DHT22;3407;49.882;10.920;2024-02-26T01:20:48;0.90;99.90
6740;DHT22;3407;49.882;10.920;2024-02-26T01:25:43;0.90;99.90
6740;DHT22;3407;49.882;10.920;2024-02-26T01:30:39;0.80;99.90
6740;DHT22;3407;49.882;10.920;2024-02-26T01:35:34;0.70;99.90
6740;DHT22;3407;49.882;10.920;2024-02-26T01:40:30;0.70;99.90
6740;DHT22;3407;49.882;10.920;2024-02-26T01:45:25;0.70;99.90
6740;DHT22;3407;49.882;10.920;2024-02-26T01:50:21;0.70;99.90
6740;DHT22;3407;49.882;10.920;2024-02-26T01:55:20;0.80;99.90
6740;DHT22;3407;49.882;10.920;2024-02-26T02:00:18;0.80;99.90
6740;DHT22;3407;49.882;10.920;2024-02-26T02:05:16;0.90;99.90
6740;DHT22;3407;49.882;10.920;2024-02-26T02:10:15;0.90;99.90
6740;DHT22;3407;49.882;10.920;2024-02-26T02:15:11;1.00;99.90
6740;DHT22;3407;49.882;10.920;2024-02-26T02:20:15;1.20;99.90
6740;DHT22;3407;49.882;10.920;2024-02-26T02:25:13;1.20;99.90
6740;DHT22;3407;49.882;10.920;2024-02-26T02:30:09;1.20;99.90
6740;DHT22;3407;49.882;10.920;2024-02-26T02:35:06;1.20;99.90
6740;DHT22;3407;49.882;10.920;2024-02-26T02:40:01;1.30;99.90
6740;DHT22;3407;49.882;10.920;2024-02-26T02:44:57;1.40;99.90
6740;DHT22;3407;49.882;10.920;2024-02-26T02:49:52;1.50;99.90
6740;DHT22;3407;49.882;10.920;2024-02-26T02:54:48;1.60;99.90
6740;DHT22;3407;49.882;10.920;2024-02-26T02:59:43;1.70;99.90
6740;DHT22;3407;49.882;10.920;2024-02-26T03:04:39;1.60;1.00
6740;DHT22;3407;49.882;10.920;2024-02-26T03:09:34;1.60;99.90
6740;DHT22;3407;49.882;10.920;2024-02-26T03:14:30;1.60;65.50
6740;DHT22;3407;49.882;10.920;2024-02-26T03:19:26;1.60;99.90
6740;DHT22;3407;49.882;10.920;2024-02-26T03:24:21;1.60;99.90
6740;DHT22;3407;49.882;10.920;2024-02-26T03:29:17;1.70;99.90
6740;DHT22;3407;49.882;10.920;2024-02-26T03:34:12;1.80;99.90
6740;DHT22;3407;49.882;10.920;2024-02-26T03:39:10;1.80;99.90
6740;DHT22;3407;49.882;10.920;2024-02-26T03:44:06;1.90;99.90
6740;DHT22;3407;49.882;10.920;2024-02-26T03:49:01;2.00;99.90
6740;DHT22;3407;49.882;10.920;2024-02-26T03:53:57;2.10;99.90
6740;DHT22;3407;49.882;10.920;2024-02-26T03:58:54;2.10;99.90
6740;DHT22;3407;49.882;10.920;2024-02-26T04:03:49;2.10;99.90
6740;DHT22;3407;49.882;10.920;2024-02-26T04:08:45;2.10;99.90
6740;DHT22;3407;49.882;10.920;2024-02-26T04:13:41;2.10;1.00
6740;DHT22;3407;49.882;10.920;2024-02-26T04:18:37;2.20;1.00
6740;DHT22;3407;49.882;10.920;2024-02-26T04:23:33;2.30;99.90
6740;DHT22;3407;49.882;10.920;2024-02-26T04:28:28;2.20;99.90
6740;DHT22;3407;49.882;10.920;2024-02-26T04:33:24;2.10;99.90
6740;DHT22;3407;49.882;10.920;2024-02-26T04:38:20;2.00;99.90
6740;DHT22;3407;49.882;10.920;2024-02-26T04:43:15;1.90;99.90
6740;DHT22;3407;49.882;10.920;2024-02-26T04:48:13;1.80;99.90
6740;DHT22;3407;49.882;10.920;2024-02-26T04:53:08;1.80;99.90
6740;DHT22;3407;49.882;10.920;2024-02-26T04:58:04;1.60;99.90
6740;DHT22;3407;49.882;10.920;2024-02-26T05:02:59;1.70;1.00
6740;DHT22;3407;49.882;10.920;2024-02-26T05:07:55;1.80;1.00
6740;DHT22;3407;49.882;10.920;2024-02-26T05:12:51;1.90;1.00
6740;DHT22;3407;49.882;10.920;2024-02-26T05:17:46;1.90;1.00
6740;DHT22;3407;49.882;10.920;2024-02-26T05:22:42;2.00;1.00
6740;DHT22;3407;49.882;10.920;2024-02-26T05:27:37;2.00;1.00
6740;DHT22;3407;49.882;10.920;2024-02-26T05:32:33;2.00;1.00
6740;DHT22;3407;49.882;10.920;2024-02-26T05:37:28;1.90;99.90
6740;DHT22;3407;49.882;10.920;2024-02-26T05:42:24;1.80;1.00
6740;DHT22;3407;49.882;10.920;2024-02-26T05:47:19;1.90;1.00
6740;DHT22;3407;49.882;10.920;2024-02-26T05:52:15;2.00;1.00
6740;DHT22;3407;49.882;10.920;2024-02-26T05:57:10;2.10;1.00
6740;DHT22;3407;49.882;10.920;2024-02-26T06:02:06;2.20;1.00
6740;DHT22;3407;49.882;10.920;2024-02-26T06:07:02;2.30;1.00
6740;DHT22;3407;49.882;10.920;2024-02-26T06:11:57;2.40;1.00
6740;DHT22;3407;49.882;10.920;2024-02-26T06:16:53;2.50;1.00
6740;DHT22;3407;49.882;10.920;2024-02-26T06:21:49;2.60;1.00
6740;DHT22;3407;49.882;10.920;2024-02-26T06:26:45;2.50;1.00
6740;DHT22;3407;49.882;10.920;2024-02-26T06:31:41;2.50;1.00
6740;DHT22;3407;49.882;10.920;2024-02-26T06:36:36;2.60;1.00
6740;DHT22;3407;49.882;10.920;2024-02-26T06:41:32;2.60;1.00
6740;DHT22;3407;49.882;10.920;2024-02-26T06:46:27;2.80;1.00
6740;DHT22;3407;49.882;10.920;2024-02-26T06:51:26;2.90;1.00
6740;DHT22;3407;49.882;10.920;2024-02-26T06:56:21;3.10;1.00
6740;DHT22;3407;49.882;10.920;2024-02-26T07:01:18;3.20;1.00
6740;DHT22;3407;49.882;10.920;2024-02-26T07:06:13;3.30;99.90
6740;DHT22;3407;49.882;10.920;2024-02-26T07:11:10;3.20;99.90
6740;DHT22;3407;49.882;10.920;2024-02-26T07:16:07;3.30;1.00
6740;DHT22;3407;49.882;10.920;2024-02-26T07:21:04;3.40;99.90
6740;DHT22;3407;49.882;10.920;2024-02-26T07:25:59;3.50;1.00
6740;DHT22;3407;49.882;10.920;2024-02-26T07:30:55;3.60;1.00
6740;DHT22;3407;49.882;10.920;2024-02-26T07:35:51;3.80;1.00
6740;DHT22;3407;49.882;10.920;2024-02-26T07:40:48;3.90;1.00
6740;DHT22;3407;49.882;10.920;2024-02-26T07:45:44;4.10;1.00
6740;DHT22;3407;49.882;10.920;2024-02-26T07:50:39;4.30;99.90
6740;DHT22;3407;49.882;10.920;2024-02-26T07:55:36;4.60;99.90
6740;DHT22;3407;49.882;10.920;2024-02-26T08:00:31;4.80;99.90
6740;DHT22;3407;49.882;10.920;2024-02-26T08:05:27;5.10;92.90
6740;DHT22;3407;49.882;10.920;2024-02-26T08:10:22;5.40;1.00
6740;DHT22;3407;49.882;10.920;2024-02-26T08:15:18;5.70;99.90
6740;DHT22;3407;49.882;10.920;2024-02-26T08:20:14;6.00;1.00
6740;DHT22;3407;49.882;10.920;2024-02-26T08:25:10;6.30;1.00
6740;DHT22;3407;49.882;10.920;2024-02-26T08:30:06;6.60;1.00
6740;DHT22;3407;49.882;10.920;2024-02-26T08:35:02;6.70;93.20
6740;DHT22;3407;49.882;10.920;2024-02-26T08:39:58;6.90;1.00
6740;DHT22;3407;49.882;10.920;2024-02-26T08:44:54;7.10;99.90
6740;DHT22;3407;49.882;10.920;2024-02-26T08:49:50;7.20;1.00
6740;DHT22;3407;49.882;10.920;2024-02-26T08:54:45;7.20;1.00
6740;DHT22;3407;49.882;10.920;2024-02-26T08:59:41;7.20;1.00
6740;DHT22;3407;49.882;10.920;2024-02-26T09:04:36;7.60;1.00
6740;DHT22;3407;49.882;10.920;2024-02-26T09:09:32;8.20;99.90
6740;DHT22;3407;49.882;10.920;2024-02-26T09:14:27;8.60;70.50
6740;DHT22;3407;49.882;10.920;2024-02-26T09:19:24;8.90;1.00
6740;DHT22;3407;49.882;10.920;2024-02-26T09:24:20;9.00;1.00
6740;DHT22;3407;49.882;10.920;2024-02-26T09:29:16;9.30;1.00
6740;DHT22;3407;49.882;10.920;2024-02-26T09:34:12;9.40;1.00
6740;DHT22;3407;49.882;10.920;2024-02-26T09:39:07;9.50;1.00
6740;DHT22;3407;49.882;10.920;2024-02-26T09:44:06;9.70;99.90
6740;DHT22;3407;49.882;10.920;2024-02-26T09:49:02;10.20;99.90
6740;DHT22;3407;49.882;10.920;2024-02-26T09:53:59;11.00;99.90
6740;DHT22;3407;49.882;10.920;2024-02-26T09:58:57;11.60;99.90
6740;DHT22;3407;49.882;10.920;2024-02-26T10:03:56;12.10;99.90
6740;DHT22;3407;49.882;10.920;2024-02-26T10:08:53;12.20;99.90
6740;DHT22;3407;49.882;10.920;2024-02-26T10:13:49;12.20;99.90
6740;DHT22;3407;49.882;10.920;2024-02-26T10:18:46;12.60;99.90
6740;DHT22;3407;49.882;10.920;2024-02-26T10:23:42;13.20;99.90
6740;DHT22;3407;49.882;10.920;2024-02-26T10:28:38;13.50;99.90
6740;DHT22;3407;49.882;10.920;2024-02-26T10:33:35;14.70;99.90
6740;DHT22;3407;49.882;10.920;2024-02-26T10:38:36;15.30;99.90
6740;DHT22;3407;49.882;10.920;2024-02-26T10:43:32;15.00;99.90
6740;DHT22;3407;49.882;10.920;2024-02-26T10:48:27;14.40;99.90
6740;DHT22;3407;49.882;10.920;2024-02-26T10:53:23;14.00;99.90
6740;DHT22;3407;49.882;10.920;2024-02-26T10:58:20;13.10;99.90
6740;DHT22;3407;49.882;10.920;2024-02-26T11:03:18;13.90;99.90
6740;DHT22;3407;49.882;10.920;2024-02-26T11:08:18;14.80;99.90
6740;DHT22;3407;49.882;10.920;2024-02-26T11:13:15;15.00;99.90
6740;DHT22;3407;49.882;10.920;2024-02-26T11:18:13;14.80;99.90
6740;DHT22;3407;49.882;10.920;2024-02-26T11:23:10;15.00;99.90
6740;DHT22;3407;49.882;10.920;2024-02-26T11:28:11;15.30;99.90
6740;DHT22;3407;49.882;10.920;2024-02-26T11:33:08;16.50;99.90
6740;DHT22;3407;49.882;10.920;2024-02-26T11:38:06;17.90;99.90
6740;DHT22;3407;49.882;10.920;2024-02-26T11:43:02;20.30;99.90
6740;DHT22;3407;49.882;10.920;2024-02-26T11:48:01;20.20;99.90
6740;DHT22;3407;49.882;10.920;2024-02-26T11:53:29;19.50;99.90
6740;DHT22;3407;49.882;10.920;2024-02-26T11:58:31;17.30;99.90
6740;DHT22;3407;49.882;10.920;2024-02-26T12:03:26;17.10;99.90
6740;DHT22;3407;49.882;10.920;2024-02-26T12:08:23;17.90;99.90
6740;DHT22;3407;49.882;10.920;2024-02-26T12:13:29;17.90;99.90
6740;DHT22;3407;49.882;10.920;2024-02-26T12:18:26;17.30;99.90
6740;DHT22;3407;49.882;10.920;2024-02-26T12:23:21;16.60;99.90
6740;DHT22;3407;49.882;10.920;2024-02-26T12:28:17;16.60;99.90
6740;DHT22;3407;49.882;10.920;2024-02-26T12:33:13;16.80;99.90
6740;DHT22;3407;49.882;10.920;2024-02-26T12:38:08;17.40;99.90
6740;DHT22;3407;49.882;10.920;2024-02-26T12:43:04;17.70;99.90
6740;DHT22;3407;49.882;10.920;2024-02-26T12:48:00;18.00;99.90
6740;DHT22;3407;49.882;10.920;2024-02-26T12:52:55;18.10;99.90
6740;DHT22;3407;49.882;10.920;2024-02-26T12:57:51;17.80;99.90
6740;DHT22;3407;49.882;10.920;2024-02-26T13:02:48;17.20;99.90
6740;DHT22;3407;49.882;10.920;2024-02-26T13:07:45;16.40;99.90
6740;DHT22;3407;49.882;10.920;2024-02-26T13:12:48;16.20;99.90
6740;DHT22;3407;49.882;10.920;2024-02-26T13:17:47;15.90;99.90
6740;DHT22;3407;49.882;10.920;2024-02-26T13:22:43;15.90;99.90
6740;DHT22;3407;49.882;10.920;2024-02-26T13:27:39;15.90;99.90
6740;DHT22;3407;49.882;10.920;2024-02-26T13:32:36;15.60;99.90
6740;DHT22;3407;49.882;10.920;2024-02-26T13:37:32;15.40;99.90
6740;DHT22;3407;49.882;10.920;2024-02-26T13:42:27;15.40;99.90
6740;DHT22;3407;49.882;10.920;2024-02-26T13:47:24;15.30;99.90
6740;DHT22;3407;49.882;10.920;2024-02-26T13:52:20;15.10;99.90
6740;DHT22;3407;49.882;10.920;2024-02-26T13:57:15;14.70;99.90
6740;DHT22;3407;49.882;10.920;2024-02-26T14:02:11;14.40;99.90
6740;DHT22;3407;49.882;10.920;2024-02-26T14:07:07;14.20;99.90
6740;DHT22;3407;49.882;10.920;2024-02-26T14:12:03;13.90;99.90
6740;DHT22;3407;49.882;10.920;2024-02-26T14:16:59;13.80;99.90
6740;DHT22;3407;49.882;10.920;2024-02-26T14:21:55;13.70;99.90
6740;DHT22;3407;49.882;10.920;2024-02-26T14:26:50;13.60;99.90
6740;DHT22;3407;49.882;10.920;2024-02-26T14:31:45;13.30;99.90
6740;DHT22;3407;49.882;10.920;2024-02-26T14:36:41;12.90;99.90
6740;DHT22;3407;49.882;10.920;2024-02-26T14:41:36;12.70;99.90
6740;DHT22;3407;49.882;10.920;2024-02-26T14:46:33;12.60;99.90
6740;DHT22;3407;49.882;10.920;2024-02-26T14:51:28;12.60;99.90
6740;DHT22;3407;49.882;10.920;2024-02-26T14:56:24;12.60;99.90
6740;DHT22;3407;49.882;10.920;2024-02-26T15:01:20;12.50;99.90
6740;DHT22;3407;49.882;10.920;2024-02-26T15:06:15;12.40;99.90
6740;DHT22;3407;49.882;10.920;2024-02-26T15:11:11;12.30;99.90
6740;DHT22;3407;49.882;10.920;2024-02-26T15:16:06;12.20;99.90
6740;DHT22;3407;49.882;10.920;2024-02-26T15:21:02;12.00;99.90
6740;DHT22;3407;49.882;10.920;2024-02-26T15:25:58;11.90;99.90
6740;DHT22;3407;49.882;10.920;2024-02-26T15:30:54;11.60;99.90
6740;DHT22;3407;49.882;10.920;2024-02-26T15:35:49;11.50;99.90
6740;DHT22;3407;49.882;10.920;2024-02-26T15:40:45;11.40;99.90
6740;DHT22;3407;49.882;10.920;2024-02-26T15:45:42;11.40;99.90
6740;DHT22;3407;49.882;10.920;2024-02-26T15:50:38;11.40;99.90
6740;DHT22;3407;49.882;10.920;2024-02-26T15:55:36;11.40;99.90
6740;DHT22;3407;49.882;10.920;2024-02-26T16:00:32;11.40;99.90
6740;DHT22;3407;49.882;10.920;2024-02-26T16:05:27;11.30;99.90
6740;DHT22;3407;49.882;10.920;2024-02-26T16:10:23;11.30;99.90
6740;DHT22;3407;49.882;10.920;2024-02-26T16:15:22;11.20;99.90
6740;DHT22;3407;49.882;10.920;2024-02-26T16:20:20;11.20;99.90
6740;DHT22;3407;49.882;10.920;2024-02-26T16:25:18;11.10;99.90
6740;DHT22;3407;49.882;10.920;2024-02-26T16:30:14;11.00;99.90
6740;DHT22;3407;49.882;10.920;2024-02-26T16:35:10;10.80;99.90
6740;DHT22;3407;49.882;10.920;2024-02-26T16:40:07;10.70;99.90
6740;DHT22;3407;49.882;10.920;2024-02-26T16:45:06;10.60;99.90
6740;DHT22;3407;49.882;10.920;2024-02-26T16:50:02;10.60;99.90
6740;DHT22;3407;49.882;10.920;2024-02-26T16:55:01;10.50;99.90
6740;DHT22;3407;49.882;10.920;2024-02-26T16:59:56;10.50;99.90
6740;DHT22;3407;49.882;10.920;2024-02-26T17:04:52;10.40;99.90
6740;DHT22;3407;49.882;10.920;2024-02-26T17:09:47;10.40;99.90
6740;DHT22;3407;49.882;10.920;2024-02-26T17:14:44;10.30;99.90
6740;DHT22;3407;49.882;10.920;2024-02-26T17:19:43;10.20;99.90
6740;DHT22;3407;49.882;10.920;2024-02-26T17:24:38;10.20;99.90
6740;DHT22;3407;49.882;10.920;2024-02-26T17:29:34;10.20;99.90
6740;DHT22;3407;49.882;10.920;2024-02-26T17:34:30;10.10;99.90
6740;DHT22;3407;49.882;10.920;2024-02-26T17:39:25;10.10;99.90
6740;DHT22;3407;49.882;10.920;2024-02-26T17:44:21;10.00;99.90
6740;DHT22;3407;49.882;10.920;2024-02-26T17:49:19;9.90;99.90
6740;DHT22;3407;49.882;10.920;2024-02-26T17:54:19;9.90;99.90
6740;DHT22;3407;49.882;10.920;2024-02-26T17:59:14;9.70;99.90
6740;DHT22;3407;49.882;10.920;2024-02-26T18:04:10;9.60;99.90
6740;DHT22;3407;49.882;10.920;2024-02-26T18:09:06;9.50;99.90
6740;DHT22;3407;49.882;10.920;2024-02-26T18:14:02;9.40;99.90
6740;DHT22;3407;49.882;10.920;2024-02-26T18:18:57;9.40;99.90
6740;DHT22;3407;49.882;10.920;2024-02-26T18:23:53;9.30;99.90
6740;DHT22;3407;49.882;10.920;2024-02-26T18:28:49;9.30;99.90
6740;DHT22;3407;49.882;10.920;2024-02-26T18:33:44;9.20;99.90
6740;DHT22;3407;49.882;10.920;2024-02-26T18:38:40;9.20;99.90
6740;DHT22;3407;49.882;10.920;2024-02-26T18:43:36;9.20;99.90
6740;DHT22;3407;49.882;10.920;2024-02-26T18:48:32;9.20;99.90
6740;DHT22;3407;49.882;10.920;2024-02-26T18:53:27;9.10;99.90
6740;DHT22;3407;49.882;10.920;2024-02-26T18:58:23;9.10;99.90
6740;DHT22;3407;49.882;10.920;2024-02-26T19:03:19;9.00;99.90
6740;DHT22;3407;49.882;10.920;2024-02-26T19:08:14;9.10;99.90
6740;DHT22;3407;49.882;10.920;2024-02-26T19:13:11;9.10;99.90
6740;DHT22;3407;49.882;10.920;2024-02-26T19:18:07;9.10;99.90
6740;DHT22;3407;49.882;10.920;2024-02-26T19:23:03;9.20;99.90
6740;DHT22;3407;49.882;10.920;2024-02-26T19:27:58;9.20;99.90
6740;DHT22;3407;49.882;10.920;2024-02-26T19:32:54;9.20;99.90
6740;DHT22;3407;49.882;10.920;2024-02-26T19:37:49;9.20;99.90
6740;DHT22;3407;49.882;10.920;2024-02-26T19:42:45;9.30;99.90
6740;DHT22;3407;49.882;10.920;2024-02-26T19:47:41;9.30;99.90
6740;DHT22;3407;49.882;10.920;2024-02-26T19:52:36;9.20;99.90
6740;DHT22;3407;49.882;10.920;2024-02-26T19:57:32;9.20;99.90
6740;DHT22;3407;49.882;10.920;2024-02-26T20:02:29;9.20;99.90
6740;DHT22;3407;49.882;10.920;2024-02-26T20:07:24;9.20;99.90
6740;DHT22;3407;49.882;10.920;2024-02-26T20:12:20;9.10;99.90
6740;DHT22;3407;49.882;10.920;2024-02-26T20:17:15;9.10;1.00
6740;DHT22;3407;49.882;10.920;2024-02-26T20:22:11;9.00;1.00
6740;DHT22;3407;49.882;10.920;2024-02-26T20:27:09;8.90;1.00
6740;DHT22;3407;49.882;10.920;2024-02-26T20:32:06;8.90;1.00
6740;DHT22;3407;49.882;10.920;2024-02-26T20:37:02;8.80;57.70
6740;DHT22;3407;49.882;10.920;2024-02-26T20:41:57;8.80;99.90
6740;DHT22;3407;49.882;10.920;2024-02-26T20:46:53;8.70;99.90
6740;DHT22;3407;49.882;10.920;2024-02-26T20:51:54;8.70;99.90
6740;DHT22;3407;49.882;10.920;2024-02-26T20:56:50;8.70;99.90
6740;DHT22;3407;49.882;10.920;2024-02-26T21:01:47;8.60;99.90
6740;DHT22;3407;49.882;10.920;2024-02-26T21:06:42;8.60;99.90
6740;DHT22;3407;49.882;10.920;2024-02-26T21:11:37;8.50;99.90
6740;DHT22;3407;49.882;10.920;2024-02-26T21:16:33;8.50;99.90
6740;DHT22;3407;49.882;10.920;2024-02-26T21:21:30;8.50;90.80
6740;DHT22;3407;49.882;10.920;2024-02-26T21:26:28;8.40;99.90
6740;DHT22;3407;49.882;10.920;2024-02-26T21:31:24;8.40;99.90
6740;DHT22;3407;49.882;10.920;2024-02-26T21:36:19;8.40;94.20
6740;DHT22;3407;49.882;10.920;2024-02-26T21:41:17;8.40;62.10
6740;DHT22;3407;49.882;10.920;2024-02-26T21:46:12;8.40;82.10
6740;DHT22;3407;49.882;10.920;2024-02-26T21:51:08;8.40;88.10
6740;DHT22;3407;49.882;10.920;2024-02-26T21:56:04;8.30;57.40
6740;DHT22;3407;49.882;10.920;2024-02-26T22:01:01;8.30;60.60
6740;DHT22;3407;49.882;10.920;2024-02-26T22:05:57;8.40;99.90
6740;DHT22;3407;49.882;10.920;2024-02-26T22:10:53;8.30;99.90
6740;DHT22;3407;49.882;10.920;2024-02-26T22:15:48;8.30;99.90
6740;DHT22;3407;49.882;10.920;2024-02-26T22:20:44;8.30;99.90
6740;DHT22;3407;49.882;10.920;2024-02-26T22:25:39;8.30;99.90
6740;DHT22;3407;49.882;10.920;2024-02-26T22:30:35;8.30;1.00
6740;DHT22;3407;49.882;10.920;2024-02-26T22:35:32;8.20;34.30
6740;DHT22;3407;49.882;10.920;2024-02-26T22:40:28;8.20;99.90
6740;DHT22;3407;49.882;10.920;2024-02-26T22:45:24;8.20;1.00
6740;DHT22;3407;49.882;10.920;2024-02-26T22:50:22;8.20;1.00
6740;DHT22;3407;49.882;10.920;2024-02-26T22:55:18;8.20;99.90
6740;DHT22;3407;49.882;10.920;2024-02-26T23:00:17;8.20;99.90
6740;DHT22;3407;49.882;10.920;2024-02-26T23:05:27;8.20;1.00
6740;DHT22;3407;49.882;10.920;2024-02-26T23:10:23;8.10;1.00
6740;DHT22;3407;49.882;10.920;2024-02-26T23:15:19;8.00;99.90
6740;DHT22;3407;49.882;10.920;2024-02-26T23:20:14;7.90;99.90
6740;DHT22;3407;49.882;10.920;2024-02-26T23:25:12;7.80;1.00
6740;DHT22;3407;49.882;10.920;2024-02-26T23:30:08;7.70;1.00
6740;DHT22;3407;49.882;10.920;2024-02-26T23:35:05;7.50;40.90
6740;DHT22;3407;49.882;10.920;2024-02-26T23:40:05;7.40;1.00
6740;DHT22;3407;49.882;10.920;2024-02-26T23:45:01;7.30;1.00
6740;DHT22;3407;49.882;10.920;2024-02-26T23:49:56;7.20;99.90
6740;DHT22;3407;49.882;10.920;2024-02-26T23:54:52;7.10;80.40
6740;DHT22;3407;49.882;10.920;2024-02-26T23:59:48;7.00;1.00
